sensor_id;sensor_type;location;lat;lon;timestamp;P1;durP1;ratioP1;P2;durP2;ratioP2
73264;SDS011;61493;51.008;14.088;2022-09-01T00:01:33;2.88;;;2.17;;
73264;SDS011;61493;51.008;14.088;2022-09-01T00:04:01;3.30;;;1.90;;
73264;SDS011;61493;51.008;14.088;2022-09-01T00:06:27;3.28;;;2.25;;
73264;SDS011;61493;51.008;14.088;2022-09-01T00:08:55;3.67;;;2.47;;
73264;SDS011;61493;51.008;14.088;2022-09-01T00:11:24;6.07;;;2.13;;
73264;SDS011;61493;51.008;14.088;2022-09-01T00:13:50;3.90;;;2.13;;
73264;SDS011;61493;51.008;14.088;2022-09-01T00:16:16;3.25;;;2.25;;
73264;SDS011;61493;51.008;14.088;2022-09-01T00:18:44;3.40;;;2.17;;
73264;SDS011;61493;51.008;14.088;2022-09-01T00:21:13;3.40;;;2.20;;
73264;SDS011;61493;51.008;14.088;2022-09-01T00:23:39;4.10;;;2.20;;
73264;SDS011;61493;51.008;14.088;2022-09-01T00:26:04;3.40;;;2.05;;
73264;SDS011;61493;51.008;14.088;2022-09-01T00:28:31;4.60;;;2.08;;
73264;SDS011;61493;51.008;14.088;2022-09-01T00:30:57;2.80;;;2.00;;
73264;SDS011;61493;51.008;14.088;2022-09-01T00:33:22;3.88;;;2.15;;
73264;SDS011;61493;51.008;14.088;2022-09-01T00:35:48;6.63;;;2.33;;
73264;SDS011;61493;51.008;14.088;2022-09-01T00:38:13;3.28;;;2.38;;
73264;SDS011;61493;51.008;14.088;2022-09-01T00:40:38;3.97;;;2.28;;
73264;SDS011;61493;51.008;14.088;2022-09-01T00:43:14;3.00;;;2.20;;
73264;SDS011;61493;51.008;14.088;2022-09-01T00:45:46;2.72;;;2.30;;
73264;SDS011;61493;51.008;14.088;2022-09-01T00:48:11;3.35;;;2.50;;
73264;SDS011;61493;51.008;14.088;2022-09-01T00:50:38;3.55;;;2.47;;
73264;SDS011;61493;51.008;14.088;2022-09-01T00:53:03;4.28;;;2.65;;
73264;SDS011;61493;51.008;14.088;2022-09-01T00:55:31;3.72;;;2.80;;
73264;SDS011;61493;51.008;14.088;2022-09-01T00:57:59;4.30;;;2.55;;
73264;SDS011;61493;51.008;14.088;2022-09-01T01:00:29;4.93;;;2.63;;
73264;SDS011;61493;51.008;14.088;2022-09-01T01:02:55;4.63;;;2.65;;
73264;SDS011;61493;51.008;14.088;2022-09-01T01:05:26;4.95;;;2.53;;
73264;SDS011;61493;51.008;14.088;2022-09-01T01:07:57;3.88;;;2.65;;
73264;SDS011;61493;51.008;14.088;2022-09-01T01:10:25;5.13;;;2.70;;
73264;SDS011;61493;51.008;14.088;2022-09-01T01:12:56;6.47;;;2.92;;
73264;SDS011;61493;51.008;14.088;2022-09-01T01:15:25;3.35;;;2.50;;
73264;SDS011;61493;51.008;14.088;2022-09-01T01:17:50;3.00;;;2.38;;
73264;SDS011;61493;51.008;14.088;2022-09-01T01:20:15;3.33;;;2.40;;
73264;SDS011;61493;51.008;14.088;2022-09-01T01:25:42;3.73;;;3.13;;
73264;SDS011;61493;51.008;14.088;2022-09-01T01:31:00;2.00;;;1.60;;
73264;SDS011;61493;51.008;14.088;2022-09-01T01:33:34;2.67;;;2.10;;
73264;SDS011;61493;51.008;14.088;2022-09-01T01:36:06;3.15;;;2.20;;
73264;SDS011;61493;51.008;14.088;2022-09-01T01:38:40;3.08;;;2.38;;
73264;SDS011;61493;51.008;14.088;2022-09-01T01:41:08;4.15;;;2.75;;
73264;SDS011;61493;51.008;14.088;2022-09-01T01:43:34;5.10;;;2.72;;
73264;SDS011;61493;51.008;14.088;2022-09-01T01:46:01;3.50;;;2.40;;
73264;SDS011;61493;51.008;14.088;2022-09-01T01:48:30;4.32;;;2.65;;
73264;SDS011;61493;51.008;14.088;2022-09-01T01:50:58;3.28;;;2.20;;
73264;SDS011;61493;51.008;14.088;2022-09-01T01:53:25;4.15;;;2.25;;
73264;SDS011;61493;51.008;14.088;2022-09-01T01:55:51;5.75;;;2.63;;
73264;SDS011;61493;51.008;14.088;2022-09-01T01:58:17;3.25;;;2.88;;
73264;SDS011;61493;51.008;14.088;2022-09-01T02:00:45;3.58;;;3.13;;
73264;SDS011;61493;51.008;14.088;2022-09-01T02:03:13;5.47;;;2.65;;
73264;SDS011;61493;51.008;14.088;2022-09-01T02:05:44;3.95;;;2.95;;
73264;SDS011;61493;51.008;14.088;2022-09-01T02:08:11;5.38;;;2.60;;
73264;SDS011;61493;51.008;14.088;2022-09-01T02:10:40;5.10;;;3.00;;
73264;SDS011;61493;51.008;14.088;2022-09-01T02:13:08;2.92;;;2.15;;
73264;SDS011;61493;51.008;14.088;2022-09-01T02:15:40;2.70;;;1.80;;
73264;SDS011;61493;51.008;14.088;2022-09-01T02:18:12;4.20;;;2.90;;
73264;SDS011;61493;51.008;14.088;2022-09-01T02:20:42;3.60;;;2.42;;
73264;SDS011;61493;51.008;14.088;2022-09-01T02:23:09;4.97;;;2.53;;
73264;SDS011;61493;51.008;14.088;2022-09-01T02:25:39;4.13;;;2.05;;
73264;SDS011;61493;51.008;14.088;2022-09-01T02:28:08;4.10;;;2.63;;
73264;SDS011;61493;51.008;14.088;2022-09-01T02:30:40;2.92;;;2.08;;
73264;SDS011;61493;51.008;14.088;2022-09-01T02:33:06;3.22;;;2.30;;
73264;SDS011;61493;51.008;14.088;2022-09-01T02:35:33;3.47;;;2.47;;
73264;SDS011;61493;51.008;14.088;2022-09-01T02:38:02;2.22;;;1.90;;
73264;SDS011;61493;51.008;14.088;2022-09-01T02:40:29;3.10;;;2.20;;
73264;SDS011;61493;51.008;14.088;2022-09-01T02:42:56;2.78;;;2.00;;
73264;SDS011;61493;51.008;14.088;2022-09-01T02:45:22;3.22;;;2.00;;
73264;SDS011;61493;51.008;14.088;2022-09-01T02:47:48;3.60;;;2.28;;
73264;SDS011;61493;51.008;14.088;2022-09-01T02:50:15;3.70;;;2.65;;
73264;SDS011;61493;51.008;14.088;2022-09-01T02:52:43;4.10;;;2.45;;
73264;SDS011;61493;51.008;14.088;2022-09-01T02:55:16;4.10;;;2.47;;
73264;SDS011;61493;51.008;14.088;2022-09-01T02:57:44;3.67;;;2.50;;
73264;SDS011;61493;51.008;14.088;2022-09-01T03:00:12;4.00;;;2.40;;
73264;SDS011;61493;51.008;14.088;2022-09-01T03:02:49;4.50;;;2.70;;
73264;SDS011;61493;51.008;14.088;2022-09-01T03:05:16;3.20;;;2.20;;
73264;SDS011;61493;51.008;14.088;2022-09-01T03:07:53;4.60;;;2.38;;
73264;SDS011;61493;51.008;14.088;2022-09-01T03:10:23;3.67;;;2.83;;
73264;SDS011;61493;51.008;14.088;2022-09-01T03:12:53;3.90;;;2.70;;
73264;SDS011;61493;51.008;14.088;2022-09-01T03:15:18;4.95;;;2.40;;
73264;SDS011;61493;51.008;14.088;2022-09-01T03:17:45;4.63;;;2.63;;
73264;SDS011;61493;51.008;14.088;2022-09-01T03:20:12;4.38;;;2.35;;
73264;SDS011;61493;51.008;14.088;2022-09-01T03:22:37;3.58;;;2.35;;
73264;SDS011;61493;51.008;14.088;2022-09-01T03:25:03;3.22;;;2.17;;
73264;SDS011;61493;51.008;14.088;2022-09-01T03:27:28;4.18;;;2.20;;
73264;SDS011;61493;51.008;14.088;2022-09-01T03:29:54;6.53;;;3.25;;
73264;SDS011;61493;51.008;14.088;2022-09-01T03:32:19;3.67;;;2.47;;
73264;SDS011;61493;51.008;14.088;2022-09-01T03:34:44;3.33;;;2.22;;
73264;SDS011;61493;51.008;14.088;2022-09-01T03:37:09;5.03;;;2.38;;
73264;SDS011;61493;51.008;14.088;2022-09-01T03:39:36;3.25;;;2.50;;
73264;SDS011;61493;51.008;14.088;2022-09-01T03:42:02;3.80;;;2.40;;
73264;SDS011;61493;51.008;14.088;2022-09-01T03:44:27;6.35;;;2.65;;
73264;SDS011;61493;51.008;14.088;2022-09-01T03:46:53;4.47;;;2.40;;
73264;SDS011;61493;51.008;14.088;2022-09-01T03:49:18;3.88;;;2.45;;
73264;SDS011;61493;51.008;14.088;2022-09-01T03:51:51;3.42;;;2.42;;
73264;SDS011;61493;51.008;14.088;2022-09-01T03:54:18;3.65;;;3.00;;
73264;SDS011;61493;51.008;14.088;2022-09-01T03:56:45;2.97;;;2.58;;
73264;SDS011;61493;51.008;14.088;2022-09-01T03:59:10;3.20;;;2.50;;
73264;SDS011;61493;51.008;14.088;2022-09-01T04:01:41;4.20;;;3.00;;
73264;SDS011;61493;51.008;14.088;2022-09-01T04:04:07;4.85;;;2.95;;
73264;SDS011;61493;51.008;14.088;2022-09-01T04:06:37;6.57;;;3.13;;
73264;SDS011;61493;51.008;14.088;2022-09-01T04:09:03;3.45;;;2.58;;
73264;SDS011;61493;51.008;14.088;2022-09-01T04:11:29;4.60;;;3.33;;
73264;SDS011;61493;51.008;14.088;2022-09-01T04:13:56;4.85;;;3.40;;
73264;SDS011;61493;51.008;14.088;2022-09-01T04:16:23;5.70;;;3.40;;
73264;SDS011;61493;51.008;14.088;2022-09-01T04:19:09;3.63;;;2.58;;
73264;SDS011;61493;51.008;14.088;2022-09-01T04:21:49;5.13;;;3.60;;
73264;SDS011;61493;51.008;14.088;2022-09-01T04:24:16;4.05;;;2.70;;
73264;SDS011;61493;51.008;14.088;2022-09-01T04:26:43;3.72;;;2.92;;
73264;SDS011;61493;51.008;14.088;2022-09-01T04:29:12;5.47;;;3.35;;
73264;SDS011;61493;51.008;14.088;2022-09-01T04:31:39;6.70;;;4.00;;
73264;SDS011;61493;51.008;14.088;2022-09-01T04:34:05;5.05;;;3.60;;
73264;SDS011;61493;51.008;14.088;2022-09-01T04:36:37;5.03;;;3.70;;
73264;SDS011;61493;51.008;14.088;2022-09-01T04:39:07;8.20;;;4.57;;
73264;SDS011;61493;51.008;14.088;2022-09-01T04:41:35;5.75;;;3.75;;
73264;SDS011;61493;51.008;14.088;2022-09-01T04:44:04;6.22;;;3.53;;
73264;SDS011;61493;51.008;14.088;2022-09-01T04:46:31;7.00;;;4.50;;
73264;SDS011;61493;51.008;14.088;2022-09-01T04:49:00;5.38;;;4.25;;
73264;SDS011;61493;51.008;14.088;2022-09-01T04:51:27;5.50;;;3.50;;
73264;SDS011;61493;51.008;14.088;2022-09-01T04:53:55;4.30;;;3.17;;
73264;SDS011;61493;51.008;14.088;2022-09-01T04:56:21;9.05;;;4.50;;
73264;SDS011;61493;51.008;14.088;2022-09-01T04:58:49;6.05;;;4.35;;
73264;SDS011;61493;51.008;14.088;2022-09-01T05:01:18;6.40;;;4.40;;
73264;SDS011;61493;51.008;14.088;2022-09-01T05:03:45;10.05;;;5.30;;
73264;SDS011;61493;51.008;14.088;2022-09-01T05:06:16;9.40;;;4.70;;
73264;SDS011;61493;51.008;14.088;2022-09-01T05:08:43;4.97;;;3.75;;
73264;SDS011;61493;51.008;14.088;2022-09-01T05:11:10;6.90;;;4.07;;
73264;SDS011;61493;51.008;14.088;2022-09-01T05:13:37;6.00;;;4.07;;
73264;SDS011;61493;51.008;14.088;2022-09-01T05:16:04;6.95;;;3.97;;
73264;SDS011;61493;51.008;14.088;2022-09-01T05:18:37;6.30;;;3.90;;
73264;SDS011;61493;51.008;14.088;2022-09-01T05:21:04;5.28;;;3.65;;
73264;SDS011;61493;51.008;14.088;2022-09-01T05:23:34;6.78;;;4.05;;
73264;SDS011;61493;51.008;14.088;2022-09-01T05:26:01;4.72;;;3.25;;
73264;SDS011;61493;51.008;14.088;2022-09-01T05:28:38;5.72;;;3.35;;
73264;SDS011;61493;51.008;14.088;2022-09-01T05:31:05;7.63;;;4.25;;
73264;SDS011;61493;51.008;14.088;2022-09-01T05:33:31;5.13;;;3.33;;
73264;SDS011;61493;51.008;14.088;2022-09-01T05:36:00;6.13;;;3.35;;
73264;SDS011;61493;51.008;14.088;2022-09-01T05:38:26;3.90;;;2.90;;
73264;SDS011;61493;51.008;14.088;2022-09-01T05:40:55;8.27;;;4.00;;
73264;SDS011;61493;51.008;14.088;2022-09-01T05:43:22;5.57;;;3.63;;
73264;SDS011;61493;51.008;14.088;2022-09-01T05:45:51;7.00;;;3.60;;
73264;SDS011;61493;51.008;14.088;2022-09-01T05:48:18;4.00;;;3.05;;
73264;SDS011;61493;51.008;14.088;2022-09-01T05:50:45;6.50;;;3.30;;
73264;SDS011;61493;51.008;14.088;2022-09-01T05:53:11;6.00;;;3.22;;
73264;SDS011;61493;51.008;14.088;2022-09-01T05:55:45;4.30;;;3.10;;
73264;SDS011;61493;51.008;14.088;2022-09-01T05:58:11;5.80;;;3.13;;
73264;SDS011;61493;51.008;14.088;2022-09-01T06:00:43;6.53;;;3.25;;
73264;SDS011;61493;51.008;14.088;2022-09-01T06:03:11;6.55;;;3.50;;
73264;SDS011;61493;51.008;14.088;2022-09-01T06:05:38;5.47;;;3.20;;
73264;SDS011;61493;51.008;14.088;2022-09-01T06:08:04;5.50;;;3.90;;
73264;SDS011;61493;51.008;14.088;2022-09-01T06:10:32;4.35;;;3.03;;
73264;SDS011;61493;51.008;14.088;2022-09-01T06:12:59;4.97;;;2.90;;
73264;SDS011;61493;51.008;14.088;2022-09-01T06:15:31;5.05;;;3.17;;
73264;SDS011;61493;51.008;14.088;2022-09-01T06:17:57;3.85;;;2.78;;
73264;SDS011;61493;51.008;14.088;2022-09-01T06:20:24;4.15;;;2.92;;
73264;SDS011;61493;51.008;14.088;2022-09-01T06:22:56;7.53;;;3.67;;
73264;SDS011;61493;51.008;14.088;2022-09-01T06:25:26;6.53;;;3.15;;
73264;SDS011;61493;51.008;14.088;2022-09-01T06:27:54;5.65;;;3.40;;
73264;SDS011;61493;51.008;14.088;2022-09-01T06:30:20;5.80;;;3.35;;
73264;SDS011;61493;51.008;14.088;2022-09-01T06:32:47;5.28;;;2.58;;
73264;SDS011;61493;51.008;14.088;2022-09-01T06:35:14;5.80;;;2.83;;
73264;SDS011;61493;51.008;14.088;2022-09-01T06:37:44;4.38;;;2.47;;
73264;SDS011;61493;51.008;14.088;2022-09-01T06:40:13;5.38;;;3.15;;
73264;SDS011;61493;51.008;14.088;2022-09-01T06:42:45;4.53;;;2.75;;
73264;SDS011;61493;51.008;14.088;2022-09-01T06:45:16;5.50;;;2.95;;
73264;SDS011;61493;51.008;14.088;2022-09-01T06:47:43;4.72;;;3.25;;
73264;SDS011;61493;51.008;14.088;2022-09-01T06:50:12;5.53;;;2.95;;
73264;SDS011;61493;51.008;14.088;2022-09-01T06:52:43;5.55;;;3.10;;
73264;SDS011;61493;51.008;14.088;2022-09-01T06:55:10;5.25;;;3.30;;
73264;SDS011;61493;51.008;14.088;2022-09-01T06:57:37;3.65;;;2.75;;
73264;SDS011;61493;51.008;14.088;2022-09-01T07:00:09;3.45;;;2.65;;
73264;SDS011;61493;51.008;14.088;2022-09-01T07:02:42;5.28;;;3.35;;
73264;SDS011;61493;51.008;14.088;2022-09-01T07:05:11;6.32;;;3.72;;
73264;SDS011;61493;51.008;14.088;2022-09-01T07:07:41;4.22;;;2.55;;
73264;SDS011;61493;51.008;14.088;2022-09-01T07:10:06;4.18;;;2.83;;
73264;SDS011;61493;51.008;14.088;2022-09-01T07:12:32;5.43;;;3.28;;
73264;SDS011;61493;51.008;14.088;2022-09-01T07:14:59;4.55;;;3.20;;
73264;SDS011;61493;51.008;14.088;2022-09-01T07:17:27;3.72;;;2.72;;
73264;SDS011;61493;51.008;14.088;2022-09-01T07:19:56;5.30;;;3.08;;
73264;SDS011;61493;51.008;14.088;2022-09-01T07:22:23;4.50;;;3.47;;
73264;SDS011;61493;51.008;14.088;2022-09-01T07:24:49;4.47;;;2.80;;
73264;SDS011;61493;51.008;14.088;2022-09-01T07:27:23;7.13;;;3.03;;
73264;SDS011;61493;51.008;14.088;2022-09-01T07:29:51;5.22;;;3.10;;
73264;SDS011;61493;51.008;14.088;2022-09-01T07:32:21;4.55;;;3.13;;
73264;SDS011;61493;51.008;14.088;2022-09-01T07:34:48;4.03;;;2.75;;
73264;SDS011;61493;51.008;14.088;2022-09-01T07:37:16;8.70;;;3.33;;
73264;SDS011;61493;51.008;14.088;2022-09-01T07:39:42;4.78;;;3.25;;
73264;SDS011;61493;51.008;14.088;2022-09-01T07:42:11;5.75;;;2.95;;
73264;SDS011;61493;51.008;14.088;2022-09-01T07:44:36;5.00;;;3.40;;
73264;SDS011;61493;51.008;14.088;2022-09-01T07:47:16;4.93;;;3.20;;
73264;SDS011;61493;51.008;14.088;2022-09-01T07:49:43;3.70;;;2.70;;
73264;SDS011;61493;51.008;14.088;2022-09-01T07:52:09;4.38;;;2.63;;
73264;SDS011;61493;51.008;14.088;2022-09-01T07:54:34;4.72;;;3.08;;
73264;SDS011;61493;51.008;14.088;2022-09-01T07:57:01;4.88;;;2.97;;
73264;SDS011;61493;51.008;14.088;2022-09-01T07:59:27;5.40;;;2.85;;
73264;SDS011;61493;51.008;14.088;2022-09-01T08:01:53;4.95;;;2.83;;
73264;SDS011;61493;51.008;14.088;2022-09-01T08:04:20;5.63;;;3.10;;
73264;SDS011;61493;51.008;14.088;2022-09-01T08:06:47;6.07;;;3.03;;
73264;SDS011;61493;51.008;14.088;2022-09-01T08:09:12;5.90;;;2.97;;
73264;SDS011;61493;51.008;14.088;2022-09-01T08:11:41;8.35;;;3.45;;
73264;SDS011;61493;51.008;14.088;2022-09-01T08:14:06;5.53;;;2.80;;
73264;SDS011;61493;51.008;14.088;2022-09-01T08:16:32;5.18;;;2.72;;
73264;SDS011;61493;51.008;14.088;2022-09-01T08:18:58;4.07;;;2.80;;
73264;SDS011;61493;51.008;14.088;2022-09-01T08:21:24;3.40;;;2.58;;
73264;SDS011;61493;51.008;14.088;2022-09-01T08:23:51;5.80;;;3.25;;
73264;SDS011;61493;51.008;14.088;2022-09-01T08:26:19;4.70;;;2.80;;
73264;SDS011;61493;51.008;14.088;2022-09-01T08:28:47;6.25;;;2.92;;
73264;SDS011;61493;51.008;14.088;2022-09-01T08:31:13;4.40;;;3.15;;
73264;SDS011;61493;51.008;14.088;2022-09-01T08:33:41;6.18;;;3.05;;
73264;SDS011;61493;51.008;14.088;2022-09-01T08:36:11;6.47;;;3.60;;
73264;SDS011;61493;51.008;14.088;2022-09-01T08:38:41;3.67;;;2.40;;
73264;SDS011;61493;51.008;14.088;2022-09-01T08:41:17;4.32;;;2.60;;
73264;SDS011;61493;51.008;14.088;2022-09-01T08:43:54;4.75;;;2.83;;
73264;SDS011;61493;51.008;14.088;2022-09-01T08:46:31;5.35;;;2.90;;
73264;SDS011;61493;51.008;14.088;2022-09-01T08:49:34;6.22;;;3.33;;
73264;SDS011;61493;51.008;14.088;2022-09-01T08:55:17;5.65;;;3.13;;
73264;SDS011;61493;51.008;14.088;2022-09-01T08:57:51;3.28;;;2.20;;
73264;SDS011;61493;51.008;14.088;2022-09-01T09:00:32;4.50;;;2.33;;
73264;SDS011;61493;51.008;14.088;2022-09-01T09:03:11;6.70;;;2.65;;
73264;SDS011;61493;51.008;14.088;2022-09-01T09:10:59;6.03;;;2.80;;
73264;SDS011;61493;51.008;14.088;2022-09-01T09:13:31;4.07;;;2.80;;
73264;SDS011;61493;51.008;14.088;2022-09-01T09:16:15;4.80;;;2.58;;
73264;SDS011;61493;51.008;14.088;2022-09-01T09:18:51;4.63;;;2.30;;
73264;SDS011;61493;51.008;14.088;2022-09-01T09:24:25;4.78;;;2.78;;
73264;SDS011;61493;51.008;14.088;2022-09-01T09:29:44;5.45;;;2.30;;
73264;SDS011;61493;51.008;14.088;2022-09-01T09:32:12;3.03;;;2.10;;
73264;SDS011;61493;51.008;14.088;2022-09-01T09:34:41;3.63;;;2.22;;
73264;SDS011;61493;51.008;14.088;2022-09-01T09:40:01;4.07;;;2.40;;
73264;SDS011;61493;51.008;14.088;2022-09-01T09:44:52;4.35;;;2.15;;
73264;SDS011;61493;51.008;14.088;2022-09-01T09:47:33;5.38;;;2.30;;
73264;SDS011;61493;51.008;14.088;2022-09-01T09:50:12;3.55;;;1.98;;
73264;SDS011;61493;51.008;14.088;2022-09-01T09:53:09;3.20;;;1.90;;
73264;SDS011;61493;51.008;14.088;2022-09-01T09:58:25;4.30;;;2.15;;
73264;SDS011;61493;51.008;14.088;2022-09-01T10:01:05;3.63;;;2.20;;
73264;SDS011;61493;51.008;14.088;2022-09-01T10:03:58;4.22;;;1.63;;
73264;SDS011;61493;51.008;14.088;2022-09-01T10:09:06;4.63;;;2.15;;
73264;SDS011;61493;51.008;14.088;2022-09-01T10:11:37;3.38;;;1.65;;
73264;SDS011;61493;51.008;14.088;2022-09-01T10:14:12;3.40;;;1.80;;
73264;SDS011;61493;51.008;14.088;2022-09-01T10:16:43;3.33;;;1.70;;
73264;SDS011;61493;51.008;14.088;2022-09-01T10:19:12;3.35;;;1.52;;
73264;SDS011;61493;51.008;14.088;2022-09-01T10:21:39;3.60;;;1.60;;
73264;SDS011;61493;51.008;14.088;2022-09-01T10:24:15;3.28;;;1.10;;
73264;SDS011;61493;51.008;14.088;2022-09-01T10:26:46;3.35;;;1.70;;
73264;SDS011;61493;51.008;14.088;2022-09-01T10:29:21;2.75;;;1.70;;
73264;SDS011;61493;51.008;14.088;2022-09-01T10:31:53;4.82;;;1.40;;
73264;SDS011;61493;51.008;14.088;2022-09-01T10:34:19;4.50;;;1.50;;
73264;SDS011;61493;51.008;14.088;2022-09-01T10:36:46;2.67;;;1.30;;
73264;SDS011;61493;51.008;14.088;2022-09-01T10:39:14;2.95;;;1.40;;
73264;SDS011;61493;51.008;14.088;2022-09-01T10:41:43;2.88;;;1.58;;
73264;SDS011;61493;51.008;14.088;2022-09-01T10:44:34;2.63;;;1.60;;
73264;SDS011;61493;51.008;14.088;2022-09-01T10:47:07;4.60;;;2.35;;
73264;SDS011;61493;51.008;14.088;2022-09-01T10:52:09;3.70;;;1.75;;
73264;SDS011;61493;51.008;14.088;2022-09-01T10:57:06;3.63;;;1.55;;
73264;SDS011;61493;51.008;14.088;2022-09-01T10:59:45;2.50;;;1.45;;
73264;SDS011;61493;51.008;14.088;2022-09-01T11:02:18;2.80;;;1.40;;
73264;SDS011;61493;51.008;14.088;2022-09-01T11:09:46;3.50;;;1.98;;
73264;SDS011;61493;51.008;14.088;2022-09-01T11:15:06;2.28;;;1.33;;
73264;SDS011;61493;51.008;14.088;2022-09-01T11:17:58;1.52;;;1.05;;
73264;SDS011;61493;51.008;14.088;2022-09-01T11:20:31;2.17;;;1.17;;
73264;SDS011;61493;51.008;14.088;2022-09-01T11:23:04;2.80;;;0.90;;
73264;SDS011;61493;51.008;14.088;2022-09-01T11:25:40;1.60;;;1.00;;
73264;SDS011;61493;51.008;14.088;2022-09-01T11:30:44;4.45;;;1.20;;
73264;SDS011;61493;51.008;14.088;2022-09-01T11:36:33;1.85;;;1.30;;
73264;SDS011;61493;51.008;14.088;2022-09-01T11:42:07;4.65;;;1.85;;
73264;SDS011;61493;51.008;14.088;2022-09-01T11:47:14;2.67;;;1.20;;
73264;SDS011;61493;51.008;14.088;2022-09-01T11:49:48;2.88;;;1.25;;
73264;SDS011;61493;51.008;14.088;2022-09-01T11:52:26;1.85;;;1.08;;
73264;SDS011;61493;51.008;14.088;2022-09-01T11:54:54;2.47;;;1.23;;
73264;SDS011;61493;51.008;14.088;2022-09-01T11:57:25;1.40;;;0.98;;
73264;SDS011;61493;51.008;14.088;2022-09-01T12:00:04;3.30;;;1.02;;
73264;SDS011;61493;51.008;14.088;2022-09-01T12:02:33;0.95;;;0.88;;
73264;SDS011;61493;51.008;14.088;2022-09-01T12:05:00;1.90;;;0.98;;
73264;SDS011;61493;51.008;14.088;2022-09-01T12:10:34;2.30;;;1.25;;
73264;SDS011;61493;51.008;14.088;2022-09-01T12:15:30;1.75;;;1.10;;
73264;SDS011;61493;51.008;14.088;2022-09-01T12:18:13;1.25;;;0.82;;
73264;SDS011;61493;51.008;14.088;2022-09-01T12:20:47;1.75;;;0.80;;
73264;SDS011;61493;51.008;14.088;2022-09-01T12:26:04;1.20;;;0.82;;
73264;SDS011;61493;51.008;14.088;2022-09-01T12:28:35;2.38;;;1.10;;
73264;SDS011;61493;51.008;14.088;2022-09-01T12:31:05;1.88;;;1.15;;
73264;SDS011;61493;51.008;14.088;2022-09-01T12:33:36;3.28;;;1.58;;
73264;SDS011;61493;51.008;14.088;2022-09-01T12:38:49;4.40;;;1.40;;
73264;SDS011;61493;51.008;14.088;2022-09-01T12:43:53;3.80;;;1.40;;
73264;SDS011;61493;51.008;14.088;2022-09-01T12:46:39;1.65;;;1.10;;
73264;SDS011;61493;51.008;14.088;2022-09-01T12:49:20;3.33;;;1.30;;
73264;SDS011;61493;51.008;14.088;2022-09-01T12:52:04;2.30;;;1.00;;
73264;SDS011;61493;51.008;14.088;2022-09-01T12:54:32;2.38;;;1.20;;
73264;SDS011;61493;51.008;14.088;2022-09-01T12:56:57;2.40;;;1.17;;
73264;SDS011;61493;51.008;14.088;2022-09-01T12:59:24;2.67;;;1.10;;
73264;SDS011;61493;51.008;14.088;2022-09-01T13:01:53;2.10;;;1.00;;
73264;SDS011;61493;51.008;14.088;2022-09-01T13:04:28;1.85;;;1.10;;
73264;SDS011;61493;51.008;14.088;2022-09-01T13:07:02;5.25;;;1.23;;
73264;SDS011;61493;51.008;14.088;2022-09-01T13:09:32;2.05;;;1.10;;
73264;SDS011;61493;51.008;14.088;2022-09-01T13:12:15;1.73;;;1.20;;
73264;SDS011;61493;51.008;14.088;2022-09-01T13:14:43;3.00;;;1.13;;
73264;SDS011;61493;51.008;14.088;2022-09-01T13:17:08;2.15;;;1.08;;
73264;SDS011;61493;51.008;14.088;2022-09-01T13:19:33;3.67;;;1.17;;
73264;SDS011;61493;51.008;14.088;2022-09-01T13:21:58;2.60;;;1.08;;
73264;SDS011;61493;51.008;14.088;2022-09-01T13:24:27;2.42;;;1.52;;
73264;SDS011;61493;51.008;14.088;2022-09-01T13:26:52;1.92;;;0.93;;
73264;SDS011;61493;51.008;14.088;2022-09-01T13:29:20;2.05;;;1.20;;
73264;SDS011;61493;51.008;14.088;2022-09-01T13:31:58;2.53;;;1.02;;
73264;SDS011;61493;51.008;14.088;2022-09-01T13:34:23;3.38;;;1.60;;
73264;SDS011;61493;51.008;14.088;2022-09-01T13:36:49;2.85;;;1.40;;
73264;SDS011;61493;51.008;14.088;2022-09-01T13:39:14;2.03;;;1.08;;
73264;SDS011;61493;51.008;14.088;2022-09-01T13:41:39;2.40;;;1.20;;
73264;SDS011;61493;51.008;14.088;2022-09-01T13:44:05;1.73;;;1.02;;
73264;SDS011;61493;51.008;14.088;2022-09-01T13:46:30;3.95;;;1.00;;
73264;SDS011;61493;51.008;14.088;2022-09-01T13:48:56;3.30;;;1.00;;
73264;SDS011;61493;51.008;14.088;2022-09-01T13:51:25;2.42;;;1.00;;
73264;SDS011;61493;51.008;14.088;2022-09-01T13:53:51;2.03;;;1.00;;
73264;SDS011;61493;51.008;14.088;2022-09-01T13:56:17;2.60;;;1.00;;
73264;SDS011;61493;51.008;14.088;2022-09-01T13:58:42;2.15;;;1.10;;
73264;SDS011;61493;51.008;14.088;2022-09-01T14:01:09;4.50;;;1.23;;
73264;SDS011;61493;51.008;14.088;2022-09-01T14:03:36;4.95;;;1.08;;
73264;SDS011;61493;51.008;14.088;2022-09-01T14:06:01;2.33;;;1.08;;
73264;SDS011;61493;51.008;14.088;2022-09-01T14:08:26;2.80;;;0.93;;
73264;SDS011;61493;51.008;14.088;2022-09-01T14:10:52;2.22;;;1.17;;
73264;SDS011;61493;51.008;14.088;2022-09-01T14:13:22;2.20;;;1.02;;
73264;SDS011;61493;51.008;14.088;2022-09-01T14:15:48;1.75;;;1.13;;
73264;SDS011;61493;51.008;14.088;2022-09-01T14:18:14;1.58;;;0.90;;
73264;SDS011;61493;51.008;14.088;2022-09-01T14:20:42;2.45;;;0.95;;
73264;SDS011;61493;51.008;14.088;2022-09-01T14:23:10;1.48;;;0.80;;
73264;SDS011;61493;51.008;14.088;2022-09-01T14:25:40;1.38;;;0.93;;
73264;SDS011;61493;51.008;14.088;2022-09-01T14:28:09;4.18;;;1.10;;
73264;SDS011;61493;51.008;14.088;2022-09-01T14:30:35;1.80;;;1.17;;
73264;SDS011;61493;51.008;14.088;2022-09-01T14:33:01;1.92;;;1.23;;
73264;SDS011;61493;51.008;14.088;2022-09-01T14:35:28;1.30;;;0.70;;
73264;SDS011;61493;51.008;14.088;2022-09-01T14:37:57;1.10;;;0.82;;
73264;SDS011;61493;51.008;14.088;2022-09-01T14:40:23;1.30;;;0.80;;
73264;SDS011;61493;51.008;14.088;2022-09-01T14:42:49;1.30;;;0.90;;
73264;SDS011;61493;51.008;14.088;2022-09-01T14:45:21;2.03;;;1.00;;
73264;SDS011;61493;51.008;14.088;2022-09-01T14:47:49;2.58;;;1.05;;
73264;SDS011;61493;51.008;14.088;2022-09-01T14:50:18;1.00;;;0.70;;
73264;SDS011;61493;51.008;14.088;2022-09-01T14:52:45;3.15;;;1.00;;
73264;SDS011;61493;51.008;14.088;2022-09-01T14:55:12;2.67;;;1.10;;
73264;SDS011;61493;51.008;14.088;2022-09-01T14:57:38;2.42;;;1.15;;
73264;SDS011;61493;51.008;14.088;2022-09-01T15:00:05;3.05;;;1.08;;
73264;SDS011;61493;51.008;14.088;2022-09-01T15:02:36;4.15;;;1.10;;
73264;SDS011;61493;51.008;14.088;2022-09-01T15:05:03;1.55;;;0.95;;
73264;SDS011;61493;51.008;14.088;2022-09-01T15:07:28;1.48;;;0.90;;
73264;SDS011;61493;51.008;14.088;2022-09-01T15:09:53;2.00;;;1.00;;
73264;SDS011;61493;51.008;14.088;2022-09-01T15:12:19;2.10;;;1.13;;
73264;SDS011;61493;51.008;14.088;2022-09-01T15:14:46;2.03;;;0.90;;
73264;SDS011;61493;51.008;14.088;2022-09-01T15:17:11;2.17;;;1.00;;
73264;SDS011;61493;51.008;14.088;2022-09-01T15:19:36;5.13;;;1.10;;
73264;SDS011;61493;51.008;14.088;2022-09-01T15:22:02;1.70;;;0.90;;
73264;SDS011;61493;51.008;14.088;2022-09-01T15:24:28;3.13;;;0.90;;
73264;SDS011;61493;51.008;14.088;2022-09-01T15:26:53;1.00;;;0.77;;
73264;SDS011;61493;51.008;14.088;2022-09-01T15:29:18;1.10;;;0.60;;
73264;SDS011;61493;51.008;14.088;2022-09-01T15:31:44;1.92;;;0.80;;
73264;SDS011;61493;51.008;14.088;2022-09-01T15:34:09;1.33;;;0.70;;
73264;SDS011;61493;51.008;14.088;2022-09-01T15:36:37;0.40;;;0.40;;
73264;SDS011;61493;51.008;14.088;2022-09-01T15:39:04;1.27;;;0.70;;
73264;SDS011;61493;51.008;14.088;2022-09-01T15:41:30;1.08;;;0.68;;
73264;SDS011;61493;51.008;14.088;2022-09-01T15:43:57;1.50;;;0.80;;
73264;SDS011;61493;51.008;14.088;2022-09-01T15:46:24;1.27;;;0.63;;
73264;SDS011;61493;51.008;14.088;2022-09-01T15:48:56;2.80;;;0.88;;
73264;SDS011;61493;51.008;14.088;2022-09-01T15:53:51;1.40;;;0.80;;
73264;SDS011;61493;51.008;14.088;2022-09-01T15:56:40;3.72;;;0.85;;